createdAt,value
2022-08-03T00:02:19.061Z,11.40
2022-08-03T00:04:47.817Z,9.30
2022-08-03T00:07:16.544Z,10.50
2022-08-03T00:09:44.810Z,15.50
2022-08-03T00:12:13.298Z,11.90
2022-08-03T00:14:42.470Z,15.20
2022-08-03T00:17:10.779Z,9.40
2022-08-03T00:19:38.975Z,10.10
2022-08-03T00:22:07.555Z,16.50
2022-08-03T00:24:35.971Z,16.80
2022-08-03T00:27:04.368Z,13.00
2022-08-03T00:29:33.090Z,14.00
2022-08-03T00:32:21.402Z,14.00
2022-08-03T00:34:57.519Z,13.10
2022-08-03T00:37:40.764Z,11.50
2022-08-03T00:40:13.923Z,15.00
2022-08-03T00:42:50.413Z,11.50
2022-08-03T00:45:19.400Z,9.90
2022-08-03T00:47:47.908Z,10.50
2022-08-03T00:50:17.523Z,10.80
2022-08-03T00:52:46.734Z,16.90
2022-08-03T00:55:15.320Z,12.80
2022-08-03T00:57:43.825Z,10.10
2022-08-03T01:00:15.092Z,9.30
2022-08-03T01:02:43.307Z,12.10
2022-08-03T01:05:12.317Z,13.80
2022-08-03T01:08:02.202Z,11.70
2022-08-03T01:10:37.343Z,9.60
2022-08-03T01:14:01.433Z,11.80
2022-08-03T01:16:14.555Z,15.20
2022-08-03T01:18:47.403Z,13.20
2022-08-03T01:21:20.724Z,8.80
2022-08-03T01:24:02.292Z,9.20
2022-08-03T01:26:55.275Z,10.30
2022-08-03T01:29:51.817Z,13.20
2022-08-03T01:32:52.446Z,12.90
2022-08-03T01:35:12.865Z,10.60
2022-08-03T01:37:43.807Z,11.10
2022-08-03T01:40:13.587Z,11.60
2022-08-03T01:42:42.698Z,13.70
2022-08-03T01:45:13.387Z,11.10
2022-08-03T01:47:42.518Z,11.40
2022-08-03T01:50:12.157Z,13.60
2022-08-03T01:52:42.112Z,11.60
2022-08-03T01:55:11.971Z,11.10
2022-08-03T01:58:05.439Z,16.20
2022-08-03T02:00:30.492Z,11.40
2022-08-03T02:02:58.981Z,12.00
2022-08-03T02:05:27.918Z,11.70
2022-08-03T02:07:57.159Z,11.50
2022-08-03T02:10:35.606Z,12.20
2022-08-03T02:13:07.037Z,11.90
2022-08-03T02:15:36.909Z,12.80
2022-08-03T02:18:07.716Z,10.90
2022-08-03T02:20:38.361Z,13.50
2022-08-03T02:23:07.221Z,18.50
2022-08-03T02:25:41.625Z,12.50
2022-08-03T02:28:13.487Z,12.90
2022-08-03T02:30:44.061Z,12.20
2022-08-03T02:33:17.234Z,10.50
2022-08-03T02:35:45.978Z,12.10
2022-08-03T02:38:15.306Z,14.60
2022-08-03T02:40:44.964Z,11.50
2022-08-03T02:43:18.415Z,11.90
2022-08-03T02:45:49.488Z,13.40
2022-08-03T02:48:20.455Z,14.80
2022-08-03T02:50:49.110Z,17.50
2022-08-03T02:53:18.239Z,11.40
2022-08-03T02:55:48.858Z,12.30
2022-08-03T02:58:20.715Z,11.00
2022-08-03T03:00:49.381Z,11.50
2022-08-03T03:03:17.917Z,13.50
2022-08-03T03:05:52.665Z,11.90
2022-08-03T03:08:28.608Z,11.80
2022-08-03T03:10:59.917Z,12.10
2022-08-03T03:13:29.353Z,12.00
2022-08-03T03:16:00.771Z,16.30
2022-08-03T03:18:29.738Z,11.80
2022-08-03T03:20:58.840Z,11.80
2022-08-03T03:23:28.503Z,11.80
2022-08-03T03:25:58.367Z,15.10
2022-08-03T03:28:27.462Z,13.50
2022-08-03T03:30:55.739Z,12.30
2022-08-03T03:33:24.223Z,12.90
2022-08-03T03:35:52.531Z,13.90
2022-08-03T03:38:21.083Z,13.10
2022-08-03T03:40:49.759Z,12.80
2022-08-03T03:43:18.396Z,11.60
2022-08-03T03:45:48.194Z,13.70
2022-08-03T03:48:16.612Z,16.60
2022-08-03T03:50:45.449Z,14.00
2022-08-03T03:53:14.352Z,13.50
2022-08-03T03:55:58.937Z,15.20
2022-08-03T03:58:32.217Z,15.80
2022-08-03T04:01:00.927Z,20.60
2022-08-03T04:03:29.895Z,14.30
2022-08-03T04:06:17.004Z,14.30
2022-08-03T04:09:03.691Z,13.00
2022-08-03T04:11:36.687Z,21.40
2022-08-03T04:14:08.311Z,23.10
2022-08-03T04:16:43.657Z,14.20
2022-08-03T04:19:18.550Z,19.50
2022-08-03T04:21:53.164Z,18.10
2022-08-03T04:24:26.885Z,18.30
2022-08-03T04:26:56.967Z,14.60
2022-08-03T04:29:26.751Z,15.90
2022-08-03T04:31:55.819Z,16.10
2022-08-03T04:34:24.230Z,17.90
2022-08-03T04:36:56.475Z,19.20
2022-08-03T04:39:26.464Z,15.70
2022-08-03T04:42:07.344Z,16.00
2022-08-03T04:44:39.208Z,22.20
2022-08-03T04:47:07.719Z,21.30
2022-08-03T04:49:37.229Z,21.50
2022-08-03T04:52:08.088Z,18.20
2022-08-03T04:54:41.278Z,18.90
2022-08-03T04:57:10.598Z,19.30
2022-08-03T04:59:56.841Z,25.80
2022-08-03T05:02:30.937Z,23.70
2022-08-03T05:04:59.359Z,20.40
2022-08-03T05:07:35.584Z,21.40
2022-08-03T05:10:15.900Z,21.90
2022-08-03T05:12:46.152Z,30.20
2022-08-03T05:15:15.407Z,26.30
2022-08-03T05:17:43.787Z,28.50
2022-08-03T05:20:12.450Z,28.00
2022-08-03T05:22:40.859Z,25.20
2022-08-03T05:25:09.628Z,25.60
2022-08-03T05:27:48.405Z,40.30
2022-08-03T05:30:32.424Z,31.20
2022-08-03T05:33:04.286Z,26.30
2022-08-03T05:36:02.640Z,28.20
2022-08-03T05:38:28.661Z,31.00
2022-08-03T05:41:20.029Z,32.50
2022-08-03T05:43:52.282Z,34.10
2022-08-03T05:46:21.089Z,38.80
2022-08-03T05:48:49.481Z,34.90
2022-08-03T05:51:18.246Z,30.20
2022-08-03T05:53:47.019Z,28.40
2022-08-03T05:56:16.690Z,34.30
2022-08-03T05:58:46.878Z,42.30
2022-08-03T06:01:15.663Z,38.60
2022-08-03T06:03:44.054Z,45.60
2022-08-03T06:06:12.486Z,36.50
2022-08-03T06:08:40.895Z,34.50
2022-08-03T06:11:09.629Z,39.00
2022-08-03T06:13:38.092Z,31.40
2022-08-03T06:16:06.826Z,30.60
2022-08-03T06:18:35.117Z,29.80
2022-08-03T06:21:11.047Z,36.30
2022-08-03T06:23:53.251Z,49.70
2022-08-03T06:26:28.012Z,31.90
2022-08-03T06:28:56.499Z,27.20
2022-08-03T06:31:32.342Z,28.10
2022-08-03T06:34:31.092Z,25.80
2022-08-03T06:36:50.763Z,24.80
2022-08-03T06:39:19.016Z,25.80
2022-08-03T06:41:47.373Z,28.20
2022-08-03T06:44:15.858Z,34.10
2022-08-03T06:46:44.325Z,25.40
2022-08-03T06:49:15.042Z,27.40
2022-08-03T06:52:04.476Z,24.30
2022-08-03T06:54:33.186Z,31.20
2022-08-03T06:57:01.940Z,25.30
2022-08-03T07:00:10.527Z,24.30
2022-08-03T07:02:19.346Z,25.10
2022-08-03T07:04:47.990Z,24.10
2022-08-03T07:07:16.902Z,25.10
2022-08-03T07:09:57.808Z,33.40
2022-08-03T07:12:28.815Z,24.90
2022-08-03T07:15:01.139Z,28.10
2022-08-03T07:17:38.081Z,32.20
2022-08-03T07:20:18.828Z,25.40
2022-08-03T07:22:50.323Z,27.90
2022-08-03T07:25:20.040Z,26.60
2022-08-03T07:27:51.893Z,27.00
2022-08-03T07:30:26.104Z,25.60
2022-08-03T07:32:57.773Z,27.10
2022-08-03T07:35:28.231Z,23.00
2022-08-03T07:37:56.680Z,30.00
2022-08-03T07:40:26.999Z,31.00
2022-08-03T07:43:02.914Z,27.20
2022-08-03T07:45:31.367Z,30.60
2022-08-03T07:47:59.565Z,34.90
2022-08-03T07:50:28.818Z,23.00
2022-08-03T07:52:59.234Z,24.20
2022-08-03T07:55:28.208Z,24.00
2022-08-03T07:58:04.169Z,21.80
2022-08-03T08:00:34.022Z,24.00
2022-08-03T08:03:02.831Z,21.90
2022-08-03T08:05:31.311Z,26.80
2022-08-03T08:08:07.730Z,22.20
2022-08-03T08:10:37.915Z,22.10
2022-08-03T08:13:09.677Z,27.80
2022-08-03T08:15:46.261Z,27.20
2022-08-03T08:18:17.372Z,22.80
2022-08-03T08:20:46.374Z,28.60
2022-08-03T08:23:42.799Z,22.00
2022-08-03T08:26:13.914Z,20.80
2022-08-03T08:28:49.022Z,28.20
2022-08-03T08:31:19.027Z,18.10
2022-08-03T08:34:03.499Z,17.80
2022-08-03T08:36:33.703Z,23.20
2022-08-03T08:39:03.101Z,19.50
2022-08-03T08:41:34.140Z,15.00
2022-08-03T08:44:04.050Z,14.80
2022-08-03T08:50:38.016Z,17.70
2022-08-03T08:53:17.344Z,18.60
2022-08-03T08:55:56.952Z,16.50
2022-08-03T08:58:31.094Z,16.80
2022-08-03T09:01:02.523Z,20.00
2022-08-03T09:03:33.963Z,13.90
2022-08-03T09:06:02.735Z,9.80
2022-08-03T09:08:32.141Z,14.10
2022-08-03T09:11:02.025Z,10.20
2022-08-03T09:13:30.910Z,6.70
2022-08-03T09:16:13.908Z,13.40
2022-08-03T09:18:43.319Z,10.60
2022-08-03T09:21:36.272Z,5.50
2022-08-03T09:24:13.031Z,8.30
2022-08-03T09:26:53.962Z,8.50
2022-08-03T09:32:03.159Z,7.50
2022-08-03T09:34:32.090Z,11.10
2022-08-03T09:37:00.676Z,10.30
2022-08-03T09:39:41.802Z,6.70
2022-08-03T09:42:14.780Z,9.60
2022-08-03T09:45:04.218Z,10.50
2022-08-03T09:47:35.874Z,10.80
2022-08-03T09:50:07.335Z,16.10
2022-08-03T09:52:50.127Z,7.70
2022-08-03T09:56:05.127Z,7.50
2022-08-03T09:58:13.705Z,6.20
2022-08-03T10:00:56.814Z,7.40
2022-08-03T10:04:03.163Z,7.50
2022-08-03T10:06:30.126Z,6.50
2022-08-03T10:09:10.346Z,5.90
2022-08-03T10:11:42.109Z,9.30
2022-08-03T10:14:18.603Z,11.70
2022-08-03T10:16:58.336Z,7.40
2022-08-03T10:19:27.238Z,10.30
2022-08-03T10:21:57.730Z,6.80
2022-08-03T10:24:28.572Z,6.20
2022-08-03T10:27:03.501Z,6.10
2022-08-03T10:29:49.176Z,9.50
2022-08-03T10:32:21.947Z,7.90
2022-08-03T10:35:26.446Z,5.10
2022-08-03T10:37:59.269Z,5.50
2022-08-03T10:43:41.459Z,5.30
2022-08-03T10:46:15.836Z,9.80
2022-08-03T10:49:02.201Z,4.40
2022-08-03T10:51:48.460Z,5.60
2022-08-03T10:55:03.300Z,8.40
2022-08-03T10:58:05.742Z,8.20
2022-08-03T11:00:53.665Z,6.00
2022-08-03T11:03:22.146Z,7.30
2022-08-03T11:05:53.200Z,8.70
2022-08-03T11:08:30.540Z,6.00
2022-08-03T11:11:02.046Z,9.70
2022-08-03T11:13:33.391Z,10.70
2022-08-03T11:16:22.042Z,4.90
2022-08-03T11:19:01.156Z,5.10
2022-08-03T11:21:56.533Z,8.10
2022-08-03T11:24:57.509Z,5.00
2022-08-03T11:27:32.922Z,7.80
2022-08-03T11:30:06.137Z,7.00
2022-08-03T11:32:57.862Z,4.60
2022-08-03T11:35:28.897Z,6.20
2022-08-03T11:38:11.180Z,6.60
2022-08-03T11:40:43.239Z,9.10
2022-08-03T11:43:44.815Z,4.70
2022-08-03T11:46:28.555Z,4.90
2022-08-03T11:49:09.845Z,4.50
2022-08-03T11:51:40.539Z,10.70
2022-08-03T11:54:10.856Z,7.90
2022-08-03T11:56:46.589Z,5.80
2022-08-03T11:59:21.766Z,4.30
2022-08-03T12:01:50.974Z,7.80
2022-08-03T12:04:19.575Z,4.70
2022-08-03T12:07:00.603Z,8.60
2022-08-03T12:09:37.267Z,7.20
2022-08-03T12:12:21.464Z,4.70
2022-08-03T12:14:59.925Z,4.10
2022-08-03T12:20:08.452Z,3.90
2022-08-03T12:25:38.869Z,3.90
2022-08-03T12:28:36.479Z,3.20
2022-08-03T12:31:11.410Z,4.30
2022-08-03T12:36:22.910Z,4.50
2022-08-03T12:38:59.228Z,4.00
2022-08-03T12:41:34.022Z,7.70
2022-08-03T12:44:03.659Z,4.90
2022-08-03T12:46:34.453Z,4.40
2022-08-03T12:49:08.671Z,5.00
2022-08-03T12:51:38.786Z,3.70
2022-08-03T12:54:07.269Z,3.10
2022-08-03T12:56:58.688Z,3.70
2022-08-03T13:00:59.935Z,5.00
2022-08-03T13:03:39.796Z,5.10
2022-08-03T13:06:15.951Z,4.40
2022-08-03T13:08:47.400Z,4.80
2022-08-03T13:11:52.518Z,4.80
2022-08-03T13:14:16.663Z,5.20
2022-08-03T13:16:50.377Z,4.00
2022-08-03T13:19:19.126Z,5.90
2022-08-03T13:22:01.690Z,4.70
2022-08-03T13:24:34.363Z,4.70
2022-08-03T13:28:12.469Z,3.70
2022-08-03T13:30:01.816Z,7.10
2022-08-03T13:32:30.804Z,5.40
2022-08-03T13:35:02.023Z,5.40
2022-08-03T13:37:35.506Z,5.10
2022-08-03T13:40:08.665Z,3.40
2022-08-03T13:43:02.019Z,3.60
2022-08-03T13:49:06.841Z,3.50
2022-08-03T13:52:02.963Z,5.20
2022-08-03T13:54:41.739Z,3.90
2022-08-03T13:58:11.637Z,4.00
2022-08-03T14:00:27.855Z,11.80
2022-08-03T14:03:15.354Z,4.50
2022-08-03T14:05:44.071Z,6.70
2022-08-03T14:08:12.763Z,3.90
2022-08-03T14:10:43.388Z,3.80
2022-08-03T14:13:12.423Z,4.20
2022-08-03T14:15:41.177Z,4.00
2022-08-03T14:18:12.998Z,4.70
2022-08-03T14:20:50.305Z,6.70
2022-08-03T14:23:22.761Z,5.30
2022-08-03T14:25:52.926Z,4.70
2022-08-03T14:28:23.568Z,8.90
2022-08-03T14:30:53.518Z,4.30
2022-08-03T14:33:22.068Z,6.60
2022-08-03T14:35:51.520Z,7.20
2022-08-03T14:38:20.180Z,4.40
2022-08-03T14:40:49.144Z,6.30
2022-08-03T14:43:18.121Z,4.10
2022-08-03T14:45:46.643Z,4.40
2022-08-03T14:50:31.010Z,4.70
2022-08-03T14:51:05.095Z,5.40
2022-08-03T14:53:34.705Z,6.50
2022-08-03T14:56:07.792Z,4.70
2022-08-03T14:58:39.043Z,4.40
2022-08-03T15:02:03.056Z,3.80
2022-08-03T15:03:56.255Z,4.20
2022-08-03T15:06:24.875Z,4.60
2022-08-03T15:09:21.524Z,6.80
2022-08-03T15:11:44.535Z,5.60
2022-08-03T15:14:14.720Z,5.00
2022-08-03T15:16:46.077Z,5.40
2022-08-03T15:20:03.567Z,5.90
2022-08-03T15:22:03.816Z,4.10
2022-08-03T15:24:32.352Z,4.80
2022-08-03T15:27:01.186Z,11.80
2022-08-03T15:30:07.793Z,7.10
2022-08-03T15:32:23.647Z,10.70
2022-08-03T15:34:55.276Z,5.70
2022-08-03T15:37:24.956Z,4.50
2022-08-03T15:39:59.089Z,7.10
2022-08-03T15:42:29.364Z,4.20
2022-08-03T15:44:58.247Z,4.40
2022-08-03T15:47:26.593Z,4.10
2022-08-03T15:49:55.357Z,3.90
2022-08-03T15:52:23.962Z,5.60
2022-08-03T15:54:52.221Z,4.10
2022-08-03T15:57:20.841Z,4.30
2022-08-03T15:59:49.556Z,5.10
2022-08-03T16:02:17.883Z,5.40
2022-08-03T16:04:46.219Z,5.10
2022-08-03T16:07:15.178Z,4.80
2022-08-03T16:09:44.071Z,5.60
2022-08-03T16:12:15.772Z,9.10
2022-08-03T16:14:52.773Z,7.20
2022-08-03T16:17:23.771Z,5.30
2022-08-03T16:19:54.947Z,6.90
2022-08-03T16:22:23.892Z,5.60
2022-08-03T16:24:52.754Z,6.10
2022-08-03T16:27:37.593Z,6.40
2022-08-03T16:30:12.815Z,6.40
2022-08-03T16:32:41.157Z,8.30
2022-08-03T16:35:19.200Z,6.50
2022-08-03T16:37:56.296Z,9.60
2022-08-03T16:40:25.622Z,8.50
2022-08-03T16:42:54.513Z,8.40
2022-08-03T16:45:22.785Z,6.70
2022-08-03T16:48:01.449Z,7.60
2022-08-03T16:50:35.388Z,7.10
2022-08-03T16:53:06.264Z,9.00
2022-08-03T16:55:48.646Z,10.10
2022-08-03T16:58:34.335Z,7.00
2022-08-03T17:01:21.846Z,7.10
2022-08-03T17:04:03.675Z,9.40
2022-08-03T17:06:36.126Z,10.00
2022-08-03T17:09:10.075Z,5.70
2022-08-03T17:11:44.180Z,7.70
2022-08-03T17:14:16.915Z,7.50
2022-08-03T17:16:52.223Z,11.50
2022-08-03T17:19:23.492Z,8.00
2022-08-03T17:21:58.961Z,8.00
2022-08-03T17:24:32.243Z,7.50
2022-08-03T17:29:30.105Z,9.30
2022-08-03T17:31:58.689Z,7.50
2022-08-03T17:34:26.963Z,8.60
2022-08-03T17:37:04.512Z,7.90
2022-08-03T17:39:58.710Z,13.70
2022-08-03T17:42:30.441Z,9.80
2022-08-03T17:45:02.370Z,6.90
2022-08-03T17:47:42.421Z,15.50
2022-08-03T17:50:24.211Z,9.60
2022-08-03T17:53:07.569Z,9.80
2022-08-03T17:55:56.822Z,13.30
2022-08-03T17:58:41.651Z,6.50
2022-08-03T18:04:30.251Z,6.40
2022-08-03T18:07:11.976Z,11.10
2022-08-03T18:10:05.670Z,7.50
2022-08-03T18:12:39.531Z,15.90
2022-08-03T18:15:20.802Z,8.10
2022-08-03T18:17:55.093Z,11.90
2022-08-03T18:20:34.813Z,12.00
2022-08-03T18:23:10.921Z,9.60
2022-08-03T18:25:58.093Z,8.20
2022-08-03T18:32:00.445Z,8.20
2022-08-03T18:34:32.128Z,8.20
2022-08-03T18:36:56.078Z,10.50
2022-08-03T18:39:25.421Z,8.00
2022-08-03T18:41:54.375Z,11.00
2022-08-03T18:44:53.044Z,9.00
2022-08-03T18:47:26.723Z,10.40
2022-08-03T18:50:19.662Z,8.30
2022-08-03T18:52:54.712Z,11.60
2022-08-03T18:55:33.602Z,9.60
2022-08-03T18:58:17.533Z,12.00
2022-08-03T19:00:56.557Z,10.30
2022-08-03T19:03:42.951Z,8.50
2022-08-03T19:06:19.646Z,11.50
2022-08-03T19:09:00.379Z,9.40
2022-08-03T19:12:12.672Z,11.90
2022-08-03T19:14:30.349Z,12.40
2022-08-03T19:17:05.851Z,10.70
2022-08-03T19:19:43.501Z,9.80
2022-08-03T19:22:19.615Z,12.20
2022-08-03T19:24:48.871Z,11.60
2022-08-03T19:27:18.142Z,14.00
2022-08-03T19:32:39.041Z,12.10
2022-08-03T19:35:19.079Z,11.40
2022-08-03T19:37:56.942Z,8.80
2022-08-03T19:40:32.494Z,9.70
2022-08-03T19:43:07.109Z,11.90
2022-08-03T19:48:29.643Z,15.80
2022-08-03T19:50:59.103Z,13.30
2022-08-03T19:53:35.316Z,9.90
2022-08-03T19:56:06.126Z,10.90
2022-08-03T19:58:34.663Z,11.30
2022-08-03T20:01:21.107Z,12.50
2022-08-03T20:03:51.830Z,9.90
2022-08-03T20:06:23.159Z,12.50
2022-08-03T20:08:52.630Z,10.90
2022-08-03T20:11:28.626Z,14.00
2022-08-03T20:13:59.744Z,11.20
2022-08-03T20:16:28.023Z,11.00
2022-08-03T20:18:56.304Z,12.70
2022-08-03T20:21:25.615Z,13.30
2022-08-03T20:24:03.417Z,12.90
2022-08-03T20:26:53.253Z,12.70
2022-08-03T20:29:42.562Z,20.80
2022-08-03T20:32:17.980Z,11.80
2022-08-03T20:34:46.259Z,11.80
2022-08-03T20:37:18.322Z,10.80
2022-08-03T20:39:48.311Z,11.50
2022-08-03T20:42:21.472Z,15.50
2022-08-03T20:45:06.150Z,11.70
2022-08-03T20:47:36.004Z,11.90
2022-08-03T20:50:07.593Z,13.10
2022-08-03T20:52:43.784Z,11.20
2022-08-03T20:55:20.215Z,11.10
2022-08-03T20:58:07.730Z,14.80
2022-08-03T21:00:36.662Z,11.80
2022-08-03T21:03:06.168Z,15.10
2022-08-03T21:05:47.735Z,13.40
2022-08-03T21:08:18.699Z,14.90
2022-08-03T21:10:48.554Z,12.10
2022-08-03T21:12:58.148Z,10.30
2022-08-03T21:13:05.312Z,13.90
2022-08-03T21:13:09.487Z,8.50
2022-08-03T21:13:10.710Z,9.20
2022-08-03T21:16:11.630Z,11.40
2022-08-03T21:18:47.045Z,12.60
2022-08-03T21:21:17.749Z,12.40
2022-08-03T21:23:50.061Z,17.20
2022-08-03T21:26:19.937Z,17.90
2022-08-03T21:28:52.811Z,18.70
2022-08-03T21:31:24.463Z,12.50
2022-08-03T21:33:56.517Z,13.30
2022-08-03T21:36:26.871Z,14.20
2022-08-03T21:38:57.234Z,13.60
2022-08-03T21:41:27.927Z,17.80
2022-08-03T21:43:56.297Z,13.80
2022-08-03T21:46:25.892Z,13.60
2022-08-03T21:50:04.136Z,12.60
2022-08-03T21:51:49.899Z,12.90
2022-08-03T21:54:18.877Z,15.00
2022-08-03T21:56:48.410Z,16.70
2022-08-03T21:59:19.170Z,13.50
2022-08-03T22:01:51.532Z,11.00
2022-08-03T22:04:38.067Z,14.50
2022-08-03T22:07:13.069Z,10.60
2022-08-03T22:09:51.054Z,11.10
2022-08-03T22:12:24.813Z,10.00
2022-08-03T22:15:00.544Z,15.80
2022-08-03T22:17:54.957Z,10.60
2022-08-03T22:20:22.054Z,16.00
2022-08-03T22:22:55.284Z,10.50
2022-08-03T22:25:28.612Z,12.00
2022-08-03T22:27:59.701Z,10.30
2022-08-03T22:30:28.805Z,10.90
2022-08-03T22:32:57.792Z,9.40
2022-08-03T22:35:28.157Z,9.00
2022-08-03T22:37:58.250Z,11.20
2022-08-03T22:40:27.538Z,10.00
2022-08-03T22:42:57.067Z,9.70
2022-08-03T22:46:07.126Z,9.50
2022-08-03T22:48:17.406Z,11.20
2022-08-03T22:50:46.292Z,11.70
2022-08-03T22:53:19.930Z,14.30
2022-08-03T22:55:49.684Z,9.70
2022-08-03T22:58:20.325Z,9.40
2022-08-03T23:00:53.938Z,8.80
2022-08-03T23:03:25.189Z,9.80
2022-08-03T23:06:01.277Z,10.00
2022-08-03T23:08:34.281Z,10.90
2022-08-03T23:11:08.119Z,10.20
2022-08-03T23:13:37.073Z,10.50
2022-08-03T23:16:06.487Z,10.10
2022-08-03T23:18:37.869Z,11.30
2022-08-03T23:21:11.496Z,10.60
2022-08-03T23:23:44.447Z,10.10
2022-08-03T23:26:14.183Z,10.80
2022-08-03T23:28:46.027Z,10.50
2022-08-03T23:31:15.810Z,9.80
2022-08-03T23:33:45.318Z,10.80
2022-08-03T23:36:31.023Z,10.80
2022-08-03T23:39:03.030Z,11.90
2022-08-03T23:41:32.923Z,12.40
2022-08-03T23:44:01.733Z,10.80
2022-08-03T23:46:33.124Z,12.00
2022-08-03T23:49:01.540Z,11.00
2022-08-03T23:51:36.649Z,13.10
2022-08-03T23:54:19.511Z,10.90
2022-08-03T23:56:54.129Z,11.60
2022-08-03T23:59:31.090Z,13.60
